Meridianville, Alabama
Current Conditions -  °F | °C
As of 5:35 AM on Saturday 20 Dec 2014 (Local Time) from KMDQ Reporting Station
Haze Haze  
Wind Chill: 27°   Ceiling: Unl
Heat Index: 32°   Visibility: 5mi
Dew Point: 28°   Wind: 5mph
Humidity: 87%   Direction: 350°N
Pressure: 30.22"   Gusts: NA
Location:  34.85°N, 86.57°W
Report Text: KMDQ 201135Z AUTO 35004KT 5SM BR CLR 00/M02 A3022 RMK AO2
Loading
Personal Weather Stations






























Interactive Weather Map New forecast layout! Learn more

10-Day Weather Forecast

Advertisements
Track Severe Weather on mobile